Kortrijk, Belgium
Current Conditions -  °F | °C
As of 1:30 AM on Friday 28 Nov 2014 (Local Time) from LFQQ Reporting Station
Overcast Overcast  
Wind Chill: 50°   Ceiling: 1400
Heat Index: 50°   Visibility: 6mi
Dew Point: 48°   Wind: 7mph
Humidity: 94%   Direction: 100°E
Pressure: 29.62"   Gusts: NA
Location:  50.83°N, 3.26°E
Report Text: LFQQ 280030Z AUTO 10006KT 9999 OVC014 10/09 Q1003
Loading
Personal Weather Stations






























Interactive Weather Map New forecast layout! Learn more

10-Day Weather Forecast

Advertisements
Track Severe Weather on mobile